createdAt,value
2018-09-18T00:00:25.724Z,16.83
2018-09-18T00:02:53.525Z,15.50
2018-09-18T00:05:21.345Z,17.97
2018-09-18T00:07:49.203Z,16.27
2018-09-18T00:10:17.208Z,17.20
2018-09-18T00:12:45.208Z,17.83
2018-09-18T00:15:13.056Z,17.70
2018-09-18T00:17:40.900Z,17.33
2018-09-18T00:20:08.779Z,17.00
2018-09-18T00:22:36.673Z,16.60
2018-09-18T00:25:04.617Z,16.47
2018-09-18T00:27:32.470Z,15.97
2018-09-18T00:30:00.312Z,17.23
2018-09-18T00:32:28.181Z,16.97
2018-09-18T00:34:55.982Z,16.67
2018-09-18T00:37:23.882Z,17.33
2018-09-18T00:39:51.743Z,17.37
2018-09-18T00:42:19.613Z,17.73
2018-09-18T00:44:47.409Z,16.70
2018-09-18T00:47:15.240Z,17.63
2018-09-18T00:49:43.061Z,17.80
2018-09-18T00:52:10.941Z,18.03
2018-09-18T00:54:38.784Z,17.90
2018-09-18T00:57:06.670Z,17.47
2018-09-18T00:59:34.544Z,18.17
2018-09-18T01:02:02.417Z,17.70
2018-09-18T01:04:30.269Z,17.43
2018-09-18T01:06:58.150Z,14.73
2018-09-18T01:09:25.980Z,16.30
2018-09-18T01:11:53.766Z,15.80
2018-09-18T01:14:21.659Z,19.27
2018-09-18T01:16:49.518Z,17.40
2018-09-18T01:19:17.252Z,19.73
2018-09-18T01:21:45.121Z,17.53
2018-09-18T01:24:12.917Z,18.23
2018-09-18T01:26:40.762Z,18.10
2018-09-18T01:29:08.535Z,16.60
2018-09-18T01:31:36.399Z,18.87
2018-09-18T01:34:04.316Z,18.53
2018-09-18T01:36:32.140Z,19.57
2018-09-18T01:39:00.007Z,17.93
2018-09-18T01:41:27.859Z,17.17
2018-09-18T01:43:56.236Z,18.00
2018-09-18T01:46:24.108Z,17.53
2018-09-18T01:48:52.001Z,17.10
2018-09-18T01:51:19.962Z,17.37
2018-09-18T01:53:47.829Z,17.70
2018-09-18T01:56:15.691Z,16.23
2018-09-18T01:58:43.562Z,16.10
2018-09-18T02:01:11.437Z,18.33
2018-09-18T02:03:39.382Z,17.90
2018-09-18T02:06:07.147Z,18.60
2018-09-18T02:08:35.031Z,17.90
2018-09-18T02:11:02.883Z,18.20
2018-09-18T02:13:30.758Z,18.80
2018-09-18T02:15:58.540Z,16.87
2018-09-18T02:18:26.406Z,16.47
2018-09-18T02:20:54.254Z,17.73
2018-09-18T02:23:22.143Z,17.40
2018-09-18T02:25:50.028Z,17.37
2018-09-18T02:28:17.858Z,18.40
2018-09-18T02:30:45.719Z,17.13
2018-09-18T02:33:13.597Z,17.80
2018-09-18T02:35:41.480Z,19.53
2018-09-18T02:38:09.323Z,20.90
2018-09-18T02:40:37.202Z,16.97
2018-09-18T02:43:05.186Z,16.80
2018-09-18T02:45:33.081Z,18.97
2018-09-18T02:48:00.899Z,17.60
2018-09-18T02:50:28.821Z,17.00
2018-09-18T02:52:56.651Z,17.00
2018-09-18T02:55:24.549Z,17.23
2018-09-18T02:57:52.372Z,17.37
2018-09-18T03:00:20.284Z,18.40
2018-09-18T03:02:48.100Z,18.80
2018-09-18T03:05:16.041Z,17.47
2018-09-18T03:07:43.825Z,18.83
2018-09-18T03:10:11.697Z,18.30
2018-09-18T03:12:39.581Z,18.73
2018-09-18T03:15:07.571Z,19.03
2018-09-18T03:17:35.418Z,17.70
2018-09-18T03:20:03.397Z,17.33
2018-09-18T03:22:31.266Z,18.70
2018-09-18T03:24:59.054Z,18.40
2018-09-18T03:27:26.859Z,18.43
2018-09-18T03:29:54.760Z,17.30
2018-09-18T03:32:22.619Z,18.33
2018-09-18T03:34:51.821Z,17.17
2018-09-18T03:37:19.738Z,19.73
2018-09-18T03:39:47.802Z,19.23
2018-09-18T03:42:15.635Z,18.80
2018-09-18T03:44:43.483Z,18.33
2018-09-18T03:47:11.243Z,17.60
2018-09-18T03:49:39.266Z,18.60
2018-09-18T03:52:07.378Z,22.63
2018-09-18T03:54:35.252Z,17.77
2018-09-18T03:57:03.132Z,18.47
2018-09-18T03:59:30.886Z,18.00
2018-09-18T04:01:58.619Z,17.33
2018-09-18T04:04:26.244Z,16.50
2018-09-18T04:06:54.414Z,19.20
2018-09-18T04:09:22.531Z,17.70
2018-09-18T04:11:50.364Z,19.03
2018-09-18T04:14:18.163Z,21.70
2018-09-18T04:16:45.995Z,17.13
2018-09-18T04:19:13.883Z,19.67
2018-09-18T04:21:42.605Z,18.70
2018-09-18T04:24:10.589Z,19.97
2018-09-18T04:26:39.641Z,18.20
2018-09-18T04:29:08.030Z,18.57
2018-09-18T04:31:36.187Z,20.10
2018-09-18T04:34:03.936Z,19.57
2018-09-18T04:36:31.778Z,20.50
2018-09-18T04:38:59.658Z,19.83
2018-09-18T04:41:27.518Z,21.10
2018-09-18T04:43:55.386Z,20.60
2018-09-18T04:46:23.420Z,20.83
2018-09-18T04:48:51.219Z,21.40
2018-09-18T04:51:19.096Z,25.47
2018-09-18T04:53:47.156Z,20.30
2018-09-18T04:56:15.039Z,21.90
2018-09-18T04:58:42.888Z,21.40
2018-09-18T05:01:10.913Z,20.40
2018-09-18T05:03:38.848Z,24.23
2018-09-18T05:06:07.607Z,19.60
2018-09-18T05:08:35.470Z,21.50
2018-09-18T05:11:03.451Z,20.67
2018-09-18T05:13:31.252Z,21.23
2018-09-18T05:15:59.103Z,21.37
2018-09-18T05:18:26.977Z,19.07
2018-09-18T05:20:54.833Z,18.67
2018-09-18T05:23:22.711Z,18.23
2018-09-18T05:25:50.738Z,16.50
2018-09-18T05:28:18.547Z,18.53
2018-09-18T05:30:46.409Z,17.93
2018-09-18T05:33:14.183Z,18.17
2018-09-18T05:35:42.069Z,18.40
2018-09-18T05:38:09.934Z,19.63
2018-09-18T05:40:37.768Z,23.43
2018-09-18T05:43:05.744Z,21.17
2018-09-18T05:45:33.604Z,21.53
2018-09-18T05:48:01.401Z,23.60
2018-09-18T05:50:29.260Z,23.30
2018-09-18T05:52:57.153Z,23.03
2018-09-18T05:55:24.955Z,23.10
2018-09-18T05:57:52.715Z,23.33
2018-09-18T06:00:20.740Z,23.87
2018-09-18T06:02:48.543Z,24.27
2018-09-18T06:05:16.356Z,23.43
2018-09-18T06:07:44.189Z,23.40
2018-09-18T06:10:11.976Z,24.43
2018-09-18T06:12:41.402Z,25.23
2018-09-18T06:15:09.247Z,26.10
2018-09-18T06:17:37.220Z,27.87
2018-09-18T06:20:05.076Z,26.70
2018-09-18T06:22:32.845Z,25.43
2018-09-18T06:25:01.735Z,27.10
2018-09-18T06:27:29.874Z,27.57
2018-09-18T06:29:57.666Z,31.23
2018-09-18T06:32:25.717Z,23.77
2018-09-18T06:34:53.509Z,24.27
2018-09-18T06:37:21.448Z,24.90
2018-09-18T06:39:49.290Z,25.00
2018-09-18T06:42:17.215Z,26.80
2018-09-18T06:44:45.962Z,26.97
2018-09-18T06:47:13.856Z,27.67
2018-09-18T06:49:41.734Z,29.37
2018-09-18T06:52:09.592Z,28.90
2018-09-18T06:54:37.663Z,27.67
2018-09-18T06:57:05.311Z,27.57
2018-09-18T06:59:33.076Z,28.63
2018-09-18T07:02:00.840Z,30.23
2018-09-18T07:04:28.643Z,27.63
2018-09-18T07:06:56.484Z,28.67
2018-09-18T07:09:24.264Z,29.53
2018-09-18T07:11:52.017Z,27.27
2018-09-18T07:14:19.789Z,28.27
2018-09-18T07:16:47.595Z,28.03
2018-09-18T07:19:16.065Z,28.37
2018-09-18T07:21:43.967Z,27.30
2018-09-18T07:24:11.779Z,30.03
2018-09-18T07:26:39.633Z,27.00
2018-09-18T07:29:07.429Z,28.60
2018-09-18T07:31:35.258Z,30.50
2018-09-18T07:34:03.044Z,30.93
2018-09-18T07:36:30.924Z,29.87
2018-09-18T07:38:58.775Z,27.37
2018-09-18T07:41:26.795Z,29.50
2018-09-18T07:43:54.900Z,28.37
2018-09-18T07:46:22.673Z,27.27
2018-09-18T07:48:50.540Z,25.70
2018-09-18T07:51:18.404Z,27.67
2018-09-18T07:53:46.197Z,31.37
2018-09-18T07:56:13.944Z,33.97
2018-09-18T07:58:41.800Z,27.60
2018-09-18T08:01:09.565Z,28.27
2018-09-18T08:03:37.325Z,26.90
2018-09-18T08:06:04.998Z,25.90
2018-09-18T08:08:32.861Z,32.10
2018-09-18T08:11:00.722Z,27.17
2018-09-18T08:13:28.491Z,25.90
2018-09-18T08:15:56.151Z,24.33
2018-09-18T08:18:24.027Z,25.13
2018-09-18T08:20:51.795Z,23.10
2018-09-18T08:23:19.591Z,22.60
2018-09-18T08:25:47.466Z,25.07
2018-09-18T08:28:15.305Z,24.33
2018-09-18T08:30:43.157Z,23.83
2018-09-18T08:33:10.928Z,23.93
2018-09-18T08:35:38.804Z,24.00
2018-09-18T08:38:06.672Z,26.13
2018-09-18T08:40:34.523Z,25.40
2018-09-18T08:43:02.312Z,25.37
2018-09-18T08:45:30.099Z,23.33
2018-09-18T08:47:57.946Z,23.07
2018-09-18T08:50:25.822Z,23.60
2018-09-18T08:52:53.657Z,22.20
2018-09-18T08:55:21.538Z,22.87
2018-09-18T08:57:49.412Z,21.50
2018-09-18T09:00:17.278Z,23.13
2018-09-18T09:02:45.182Z,23.93
2018-09-18T09:05:13.021Z,23.03
2018-09-18T09:07:40.986Z,23.20
2018-09-18T09:10:08.818Z,24.07
2018-09-18T09:12:36.728Z,24.60
2018-09-18T09:15:04.636Z,25.53
2018-09-18T09:17:32.476Z,23.47
2018-09-18T09:20:00.291Z,26.20
2018-09-18T09:22:28.170Z,24.37
2018-09-18T09:24:56.041Z,23.57
2018-09-18T09:27:24.086Z,24.23
2018-09-18T09:29:52.020Z,22.57
2018-09-18T09:32:19.950Z,24.90
2018-09-18T09:34:47.748Z,24.63
2018-09-18T09:37:15.645Z,24.03
2018-09-18T09:39:43.491Z,22.73
2018-09-18T09:42:11.323Z,22.20
2018-09-18T09:44:39.214Z,22.07
2018-09-18T09:47:07.059Z,20.23
2018-09-18T09:49:34.924Z,19.63
2018-09-18T09:52:02.775Z,20.63
2018-09-18T09:54:30.545Z,19.83
2018-09-18T09:56:58.516Z,20.10
2018-09-18T09:59:26.290Z,20.13
2018-09-18T10:02:34.573Z,18.03
2018-09-18T10:05:02.389Z,21.30
2018-09-18T10:07:30.192Z,19.20
2018-09-18T10:09:58.029Z,18.03
2018-09-18T10:12:25.860Z,19.10
2018-09-18T10:14:53.658Z,18.50
2018-09-18T10:17:21.496Z,18.90
2018-09-18T10:19:49.291Z,19.80
2018-09-18T10:22:17.155Z,19.33
2018-09-18T10:24:45.006Z,16.90
2018-09-18T10:27:12.886Z,17.53
2018-09-18T10:29:40.740Z,18.70
2018-09-18T10:32:08.632Z,16.63
2018-09-18T10:34:36.506Z,17.97
2018-09-18T10:37:04.387Z,16.80
2018-09-18T10:39:32.207Z,18.03
2018-09-18T10:42:00.120Z,16.30
2018-09-18T10:44:27.943Z,17.07
2018-09-18T10:46:55.729Z,14.40
2018-09-18T10:49:23.593Z,15.13
2018-09-18T10:51:51.483Z,16.10
2018-09-18T10:54:19.305Z,15.47
2018-09-18T10:56:47.069Z,15.73
2018-09-18T10:59:14.935Z,15.20
2018-09-18T11:01:42.710Z,14.30
2018-09-18T11:04:10.572Z,15.50
2018-09-18T11:06:38.343Z,15.10
2018-09-18T11:09:07.545Z,14.63
2018-09-18T11:11:35.562Z,14.60
2018-09-18T11:14:03.411Z,14.60
2018-09-18T11:16:31.240Z,14.87
2018-09-18T11:18:59.120Z,13.87
2018-09-18T11:21:27.037Z,14.27
2018-09-18T11:23:54.879Z,13.47
2018-09-18T11:26:22.710Z,12.67
2018-09-18T11:28:50.471Z,13.40
2018-09-18T11:31:18.375Z,13.70
2018-09-18T11:33:46.219Z,12.53
2018-09-18T11:36:14.241Z,12.37
2018-09-18T11:38:42.068Z,12.60
2018-09-18T11:41:09.964Z,11.97
2018-09-18T11:43:37.790Z,13.87
2018-09-18T11:46:05.792Z,11.93
2018-09-18T11:48:33.513Z,12.30
2018-09-18T11:51:01.281Z,12.73
2018-09-18T11:53:29.142Z,11.97
2018-09-18T11:55:57.016Z,12.37
2018-09-18T11:58:24.922Z,13.13
2018-09-18T12:00:52.805Z,11.40
2018-09-18T12:03:20.780Z,12.40
2018-09-18T12:05:48.532Z,13.47
2018-09-18T12:08:16.371Z,11.90
2018-09-18T12:10:44.229Z,12.50
2018-09-18T12:13:12.087Z,11.63
2018-09-18T12:15:39.969Z,11.57
2018-09-18T12:18:07.792Z,12.07
2018-09-18T12:20:35.685Z,12.30
2018-09-18T12:23:03.473Z,12.00
2018-09-18T12:25:31.317Z,13.07
2018-09-18T12:27:59.118Z,12.20
2018-09-18T12:30:26.984Z,11.17
2018-09-18T12:32:54.751Z,10.03
2018-09-18T12:35:22.759Z,13.07
2018-09-18T12:37:50.580Z,11.53
2018-09-18T12:40:18.431Z,12.20
2018-09-18T12:42:46.375Z,10.87
2018-09-18T12:45:14.176Z,11.00
2018-09-18T12:47:42.125Z,10.83
2018-09-18T12:50:10.032Z,12.70
2018-09-18T12:52:37.868Z,10.47
2018-09-18T12:55:05.824Z,12.60
2018-09-18T12:57:33.758Z,10.87
2018-09-18T13:00:01.640Z,9.77
2018-09-18T13:02:29.454Z,9.57
2018-09-18T13:04:57.297Z,9.00
2018-09-18T13:07:25.184Z,9.80
2018-09-18T13:09:53.121Z,8.93
2018-09-18T13:12:21.107Z,8.47
2018-09-18T13:14:49.113Z,8.57
2018-09-18T13:17:16.971Z,14.00
2018-09-18T13:19:45.736Z,8.40
2018-09-18T13:22:13.630Z,9.30
2018-09-18T13:24:41.533Z,9.03
2018-09-18T13:27:09.426Z,9.80
2018-09-18T13:29:37.255Z,9.27
2018-09-18T13:32:05.607Z,10.57
2018-09-18T13:34:33.448Z,9.03
2018-09-18T13:37:01.393Z,9.00
2018-09-18T13:39:29.187Z,9.23
2018-09-18T13:41:57.108Z,8.57
2018-09-18T13:44:25.042Z,11.57
2018-09-18T13:46:52.666Z,9.40
2018-09-18T13:49:20.301Z,8.47
2018-09-18T13:51:47.946Z,8.73
2018-09-18T13:54:15.632Z,8.23
2018-09-18T13:56:43.553Z,9.53
2018-09-18T13:59:11.315Z,9.00
2018-09-18T14:01:39.488Z,9.00
2018-09-18T14:04:07.232Z,8.00
2018-09-18T14:06:34.912Z,7.63
2018-09-18T14:09:02.916Z,8.10
2018-09-18T14:11:30.637Z,8.63
2018-09-18T14:13:58.251Z,8.50
2018-09-18T14:16:25.827Z,8.13
2018-09-18T14:18:53.439Z,7.87
2018-09-18T14:21:21.035Z,7.90
2018-09-18T14:23:48.667Z,7.80
2018-09-18T14:26:16.370Z,8.00
2018-09-18T14:28:43.930Z,8.17
2018-09-18T14:31:11.566Z,10.60
2018-09-18T14:33:39.217Z,8.93
2018-09-18T14:36:06.958Z,20.93
2018-09-18T14:38:34.562Z,11.07
2018-09-18T14:41:02.154Z,8.37
2018-09-18T14:43:29.851Z,11.33
2018-09-18T14:45:57.472Z,7.40
2018-09-18T14:48:25.174Z,12.33
2018-09-18T14:50:53.867Z,7.87
2018-09-18T14:53:21.712Z,8.03
2018-09-18T14:55:50.789Z,7.63
2018-09-18T14:58:18.585Z,8.70
2018-09-18T15:00:46.466Z,7.97
2018-09-18T15:03:14.317Z,9.30
2018-09-18T15:05:42.108Z,16.90
2018-09-18T15:08:09.979Z,16.17
2018-09-18T15:10:37.825Z,10.20
2018-09-18T15:13:05.585Z,8.23
2018-09-18T15:15:33.350Z,8.63
2018-09-18T15:18:01.145Z,7.63
2018-09-18T15:20:29.022Z,13.83
2018-09-18T15:22:56.864Z,8.23
2018-09-18T15:25:24.717Z,8.50
2018-09-18T15:27:52.611Z,8.37
2018-09-18T15:30:20.561Z,9.50
2018-09-18T15:32:49.845Z,7.73
2018-09-18T15:35:17.646Z,8.83
2018-09-18T15:37:45.585Z,7.50
2018-09-18T15:40:13.372Z,8.30
2018-09-18T15:42:41.245Z,8.33
2018-09-18T15:45:09.293Z,8.17
2018-09-18T15:47:37.186Z,8.70
2018-09-18T15:50:05.058Z,8.17
2018-09-18T15:52:32.854Z,9.03
2018-09-18T15:55:00.828Z,16.57
2018-09-18T15:57:28.849Z,9.33
2018-09-18T15:59:56.882Z,9.80
2018-09-18T16:02:24.721Z,9.90
2018-09-18T16:04:52.586Z,12.57
2018-09-18T16:07:20.527Z,9.90
2018-09-18T16:09:48.451Z,8.67
2018-09-18T16:12:16.406Z,11.67
2018-09-18T16:14:44.417Z,9.33
2018-09-18T16:17:12.225Z,8.63
2018-09-18T16:19:40.078Z,10.10
2018-09-18T16:22:07.839Z,10.83
2018-09-18T16:24:35.708Z,8.37
2018-09-18T16:27:03.569Z,10.60
2018-09-18T16:29:31.528Z,11.40
2018-09-18T16:31:59.412Z,12.07
2018-09-18T16:34:27.763Z,9.77
2018-09-18T16:36:55.672Z,9.27
2018-09-18T16:39:23.426Z,9.43
2018-09-18T16:45:15.908Z,9.80
2018-09-18T16:47:43.806Z,12.83
2018-09-18T16:50:11.393Z,9.33
2018-09-18T16:52:39.047Z,10.87
2018-09-18T16:55:06.602Z,10.90
2018-09-18T16:57:34.124Z,9.50
2018-09-18T17:00:01.676Z,11.10
2018-09-18T17:02:29.361Z,11.40
2018-09-18T17:04:56.936Z,9.87
2018-09-18T17:07:24.520Z,11.00
2018-09-18T17:09:52.145Z,11.90
2018-09-18T17:12:20.101Z,12.93
2018-09-18T17:14:47.688Z,15.53
2018-09-18T17:17:15.368Z,12.83
2018-09-18T17:19:43.032Z,12.17
2018-09-18T17:22:10.633Z,13.33
2018-09-18T17:24:38.330Z,14.67
2018-09-18T17:27:06.186Z,13.20
2018-09-18T17:29:33.794Z,11.90
2018-09-18T17:32:01.366Z,12.73
2018-09-18T17:34:28.976Z,12.37
2018-09-18T17:36:56.625Z,12.03
2018-09-18T17:39:24.207Z,12.07
2018-09-18T17:41:52.010Z,12.53
2018-09-18T17:44:19.672Z,11.53
2018-09-18T17:46:47.277Z,11.70
2018-09-18T17:49:14.858Z,11.90
2018-09-18T17:51:42.589Z,12.80
2018-09-18T17:54:11.275Z,16.67
2018-09-18T17:56:38.891Z,12.07
2018-09-18T17:59:08.911Z,13.00
2018-09-18T18:01:36.752Z,15.90
2018-09-18T18:04:04.291Z,12.23
2018-09-18T18:06:32.149Z,12.60
2018-09-18T18:08:59.753Z,14.63
2018-09-18T18:11:27.395Z,14.17
2018-09-18T18:13:55.024Z,13.60
2018-09-18T18:16:22.655Z,14.63
2018-09-18T18:18:50.281Z,13.70
2018-09-18T18:21:17.900Z,13.23
2018-09-18T18:23:45.578Z,17.93
2018-09-18T18:26:13.222Z,13.33
2018-09-18T18:28:40.841Z,14.30
2018-09-18T18:31:08.392Z,13.60
2018-09-18T18:33:35.983Z,13.00
2018-09-18T18:36:05.417Z,12.97
2018-09-18T18:38:33.053Z,12.60
2018-09-18T18:41:00.711Z,12.13
2018-09-18T18:43:28.262Z,14.13
2018-09-18T18:45:55.994Z,13.57
2018-09-18T18:48:23.714Z,14.20
2018-09-18T18:50:51.285Z,12.67
2018-09-18T18:53:19.003Z,14.03
2018-09-18T18:55:46.647Z,13.40
2018-09-18T18:58:14.299Z,14.17
2018-09-18T19:00:41.982Z,12.90
2018-09-18T19:03:09.705Z,18.27
2018-09-18T19:05:37.314Z,13.77
2018-09-18T19:08:04.959Z,18.77
2018-09-18T19:10:32.868Z,13.33
2018-09-18T19:13:00.419Z,13.50
2018-09-18T19:15:28.093Z,12.83
2018-09-18T19:17:55.706Z,12.60
2018-09-18T19:20:23.829Z,14.10
2018-09-18T19:22:51.479Z,13.13
2018-09-18T19:25:19.141Z,11.67
2018-09-18T19:27:46.751Z,13.77
2018-09-18T19:30:14.362Z,13.10
2018-09-18T19:32:42.043Z,14.10
2018-09-18T19:35:09.701Z,11.93
2018-09-18T19:37:37.382Z,12.00
2018-09-18T19:40:04.974Z,12.37
2018-09-18T19:42:32.638Z,12.07
2018-09-18T19:45:00.244Z,14.30
2018-09-18T19:47:28.235Z,11.63
2018-09-18T19:49:55.871Z,13.23
2018-09-18T19:52:23.675Z,14.07
2018-09-18T19:54:51.177Z,14.47
2018-09-18T19:57:18.823Z,12.40
2018-09-18T19:59:46.420Z,14.07
2018-09-18T20:02:14.088Z,17.10
2018-09-18T20:04:41.769Z,11.70
2018-09-18T20:07:09.381Z,13.17
2018-09-18T20:09:37.021Z,12.77
2018-09-18T20:12:04.607Z,12.90
2018-09-18T20:14:32.201Z,12.67
2018-09-18T20:16:59.778Z,12.20
2018-09-18T20:19:27.417Z,16.60
2018-09-18T20:21:55.001Z,13.33
2018-09-18T20:24:22.690Z,12.70
2018-09-18T20:26:50.307Z,12.73
2018-09-18T20:29:17.961Z,13.40
2018-09-18T20:31:45.580Z,13.20
2018-09-18T20:34:13.296Z,12.73
2018-09-18T20:36:40.883Z,12.40
2018-09-18T20:39:09.591Z,12.73
2018-09-18T20:41:37.318Z,12.37
2018-09-18T20:44:04.973Z,13.07
2018-09-18T20:46:32.557Z,12.20
2018-09-18T20:49:00.108Z,13.20
2018-09-18T20:51:27.703Z,13.10
2018-09-18T20:53:55.284Z,12.03
2018-09-18T20:56:23.076Z,12.20
2018-09-18T20:58:50.844Z,12.40
2018-09-18T21:01:18.496Z,12.23
2018-09-18T21:03:46.059Z,15.20
2018-09-18T21:06:13.814Z,11.97
2018-09-18T21:08:41.382Z,12.17
2018-09-18T21:11:09.331Z,13.00
2018-09-18T21:13:36.901Z,13.77
2018-09-18T21:16:04.497Z,12.80
2018-09-18T21:18:32.059Z,12.73
2018-09-18T21:20:59.670Z,12.67
2018-09-18T21:23:27.249Z,13.63
2018-09-18T21:25:57.677Z,17.03
2018-09-18T21:28:25.302Z,20.33
2018-09-18T21:30:52.854Z,14.13
2018-09-18T21:33:20.434Z,14.97
2018-09-18T21:35:47.968Z,13.30
2018-09-18T21:38:15.550Z,14.03
2018-09-18T21:40:43.110Z,14.43
2018-09-18T21:43:10.661Z,13.43
2018-09-18T21:45:38.217Z,14.40
2018-09-18T21:48:05.751Z,14.00
2018-09-18T21:50:37.682Z,15.90
2018-09-18T21:53:05.446Z,15.00
2018-09-18T21:55:33.074Z,14.03
2018-09-18T21:58:00.770Z,14.43
2018-09-18T22:00:28.511Z,14.97
2018-09-18T22:02:56.073Z,14.10
2018-09-18T22:05:23.679Z,13.60
2018-09-18T22:07:51.246Z,13.57
2018-09-18T22:10:19.160Z,15.13
2018-09-18T22:12:46.729Z,13.80
2018-09-18T22:15:14.297Z,14.93
2018-09-18T22:17:41.844Z,14.47
2018-09-18T22:20:09.665Z,15.20
2018-09-18T22:22:37.327Z,14.90
2018-09-18T22:25:05.086Z,16.20
2018-09-18T22:27:32.648Z,15.00
2018-09-18T22:30:00.256Z,14.93
2018-09-18T22:32:27.881Z,14.23
2018-09-18T22:34:55.443Z,13.60
2018-09-18T22:37:22.988Z,12.00
2018-09-18T22:39:50.593Z,14.23
2018-09-18T22:42:18.190Z,13.13
2018-09-18T22:44:45.780Z,14.40
2018-09-18T22:47:13.589Z,13.67
2018-09-18T22:49:41.192Z,14.23
2018-09-18T22:52:08.750Z,14.13
2018-09-18T22:54:36.327Z,16.03
2018-09-18T22:57:03.917Z,14.13
2018-09-18T22:59:31.464Z,14.90
2018-09-18T23:01:59.039Z,14.20
2018-09-18T23:04:26.646Z,17.20
2018-09-18T23:06:54.309Z,14.90
2018-09-18T23:09:21.932Z,14.57
2018-09-18T23:11:49.560Z,15.30
2018-09-18T23:14:17.132Z,14.50
2018-09-18T23:16:44.710Z,14.53
2018-09-18T23:19:12.280Z,14.13
2018-09-18T23:21:39.839Z,14.73
2018-09-18T23:24:07.965Z,13.40
2018-09-18T23:26:35.641Z,15.27
2018-09-18T23:29:03.202Z,14.80
2018-09-18T23:31:30.788Z,14.50
2018-09-18T23:33:58.348Z,14.83
2018-09-18T23:36:25.904Z,16.43
2018-09-18T23:38:53.460Z,13.67
2018-09-18T23:41:21.013Z,14.80
2018-09-18T23:43:48.571Z,15.43
2018-09-18T23:46:16.132Z,14.17
2018-09-18T23:48:43.724Z,13.23
2018-09-18T23:51:11.301Z,14.73
2018-09-18T23:53:38.892Z,15.77
2018-09-18T23:56:06.580Z,13.93
2018-09-18T23:58:34.337Z,14.03
